Aviation Digital Data Service (ADDS)

Output produced by TAFs form (1328 UTC 21 December 2014)
found at http://www.aviationweather.gov/adds/tafs/
 
KDEN 211253Z 16010KT 10SM BKN220 M02/M06 A2973 RMK AO2 SLP078 T10221061
KDEN 211147Z 2112/2218 20009KT P6SM FEW080 BKN180 
     FM211900 26015G23KT P6SM SCT080 BKN150 
     FM220800 34013G21KT P6SM VCSH SCT040 BKN060 
     PROB30 2208/2212 2SM -SHSN BKN040